HEGN METAR and TAF | Updated Today

HEGN METAR

Hurghada International Airport

Observation time: 40 min. ago

HEGN 291200Z 01008KT CAVOK 36/07 Q1008 NOSIG

Need help? Read our tutorial on how to read METARs or read the parsed version below.

Hurghada International Airport (HEGN) METAR

  • Weather conditions on Sun, 29 May 2022 12:00:00 +0000 (40 min. ago):
  • Present conditions: Dry
  • Clouds: Clear skies
  • Visibility: Greater than 10 km
  • Wind: 10 degrees at 8 knots
  • Temperature: 36 celsius
  • Dew point: 7 celsius
  • Pressure: 1008 millibars
  • Remarks: None


Useful to know...

HEGN TAF

Hurghada International Airport

TAF HEGN 281700Z 2818/2924 32013KT CAVOK
Observation time: 19:40 hr. ago
Need help? Read our tutorial on how to read TAFs or read the parsed version below.

Parsed version of TAF for Hurghada International Airport (HEGN)

  • From 28 May at 18:00 UTC, to day 29 of the month at 24:00 UTC
  • Visibility: Greater than 10 km
  • Wind: 320 degrees at 13

Airports near HEGN

No airports found within 100nm radius.